createdAt,value
2023-03-12T00:01:59.745Z,98.04
2023-03-12T00:04:27.043Z,98.61
2023-03-12T00:06:54.321Z,98.21
2023-03-12T00:09:20.921Z,97.90
2023-03-12T00:11:47.409Z,98.32
2023-03-12T00:14:13.897Z,98.09
2023-03-12T00:16:40.772Z,98.41
2023-03-12T00:19:07.277Z,98.38
2023-03-12T00:21:33.864Z,98.53
2023-03-12T00:24:00.366Z,97.94
2023-03-12T00:26:26.951Z,98.17
2023-03-12T00:28:53.845Z,98.50
2023-03-12T00:31:22.057Z,98.67
2023-03-12T00:33:51.469Z,98.33
2023-03-12T00:36:19.718Z,98.37
2023-03-12T00:38:46.334Z,98.48
2023-03-12T00:41:12.960Z,98.58
2023-03-12T00:43:39.445Z,98.44
2023-03-12T00:46:05.976Z,98.49
2023-03-12T00:48:32.924Z,98.33
2023-03-12T00:50:59.467Z,98.21
2023-03-12T00:53:26.331Z,98.02
2023-03-12T00:55:52.926Z,98.64
2023-03-12T00:58:19.457Z,98.00
2023-03-12T01:00:46.160Z,97.97
2023-03-12T01:03:13.472Z,97.97
2023-03-12T01:05:41.148Z,98.51
2023-03-12T01:08:09.271Z,98.48
2023-03-12T01:10:37.287Z,98.42
2023-03-12T01:13:03.987Z,97.93
2023-03-12T01:15:30.524Z,98.03
2023-03-12T01:17:56.990Z,98.44
2023-03-12T01:20:23.750Z,98.55
2023-03-12T01:22:51.344Z,98.16
2023-03-12T01:25:18.458Z,98.36
2023-03-12T01:27:45.321Z,98.82
2023-03-12T01:30:12.529Z,98.84
2023-03-12T01:32:39.203Z,98.59
2023-03-12T01:35:06.240Z,98.72
2023-03-12T01:37:33.285Z,98.55
2023-03-12T01:40:00.438Z,98.53
2023-03-12T01:42:27.077Z,98.65
2023-03-12T01:45:04.413Z,98.73
2023-03-12T01:47:34.038Z,98.37
2023-03-12T01:50:01.375Z,98.18
2023-03-12T01:52:32.440Z,98.75
2023-03-12T01:55:09.536Z,98.48
2023-03-12T01:57:55.984Z,98.04
2023-03-12T02:00:25.610Z,97.92
2023-03-12T02:02:56.249Z,98.23
2023-03-12T02:05:30.542Z,97.88
2023-03-12T02:07:57.671Z,97.63
2023-03-12T02:10:25.916Z,97.65
2023-03-12T02:12:53.207Z,97.45
2023-03-12T02:15:19.999Z,97.07
2023-03-12T02:17:46.692Z,97.45
2023-03-12T02:20:35.859Z,97.17
2023-03-12T02:23:12.891Z,97.20
2023-03-12T02:25:49.826Z,97.29
2023-03-12T02:28:19.622Z,97.38
2023-03-12T02:30:48.767Z,97.18
2023-03-12T02:33:16.135Z,96.78
2023-03-12T02:35:43.671Z,96.63
2023-03-12T02:38:32.974Z,96.66
2023-03-12T02:41:05.529Z,96.78
2023-03-12T02:43:32.460Z,97.06
2023-03-12T02:45:58.989Z,97.00
2023-03-12T02:48:25.574Z,96.61
2023-03-12T02:50:52.093Z,96.54
2023-03-12T02:53:18.571Z,96.40
2023-03-12T02:55:45.064Z,96.16
2023-03-12T02:58:11.725Z,96.22
2023-03-12T03:00:38.162Z,96.09
2023-03-12T03:03:04.652Z,95.52
2023-03-12T03:05:31.490Z,95.59
2023-03-12T03:07:57.989Z,95.08
2023-03-12T03:10:24.585Z,95.03
2023-03-12T03:12:51.590Z,94.38
2023-03-12T03:15:18.222Z,94.54
2023-03-12T03:17:44.753Z,94.75
2023-03-12T03:20:12.004Z,94.23
2023-03-12T03:22:39.220Z,93.98
2023-03-12T03:25:07.355Z,93.87
2023-03-12T03:27:34.042Z,93.79
2023-03-12T03:30:00.529Z,93.67
2023-03-12T03:32:27.430Z,93.89
2023-03-12T03:34:53.995Z,93.88
2023-03-12T03:37:20.479Z,93.68
2023-03-12T03:39:47.049Z,93.71
2023-03-12T03:42:13.568Z,93.85
2023-03-12T03:44:40.212Z,93.92
2023-03-12T03:47:06.934Z,93.71
2023-03-12T03:49:33.572Z,93.42
2023-03-12T03:52:00.188Z,93.24
2023-03-12T03:54:26.750Z,93.46
2023-03-12T03:56:53.192Z,93.08
2023-03-12T03:59:19.703Z,92.94
2023-03-12T04:01:46.258Z,92.75
2023-03-12T04:04:12.797Z,92.43
2023-03-12T04:06:39.772Z,92.67
2023-03-12T04:09:06.451Z,92.62
2023-03-12T04:11:32.944Z,92.24
2023-03-12T04:13:59.423Z,92.58
2023-03-12T04:16:27.251Z,92.76
2023-03-12T04:18:53.801Z,92.22
2023-03-12T04:21:20.404Z,91.97
2023-03-12T04:23:46.838Z,91.84
2023-03-12T04:26:13.432Z,91.54
2023-03-12T04:28:39.916Z,91.38
2023-03-12T04:31:07.958Z,91.34
2023-03-12T04:33:37.983Z,91.73
2023-03-12T04:36:05.667Z,91.99
2023-03-12T04:38:32.425Z,92.03
2023-03-12T04:41:05.465Z,92.10
2023-03-12T04:43:32.268Z,92.03
2023-03-12T04:45:59.159Z,92.52
2023-03-12T04:48:26.492Z,92.61
2023-03-12T04:50:53.444Z,92.68
2023-03-12T04:53:20.785Z,93.26
2023-03-12T04:55:47.267Z,93.95
2023-03-12T04:58:14.865Z,94.71
2023-03-12T05:00:41.912Z,94.92
2023-03-12T05:03:09.054Z,95.41
2023-03-12T05:05:36.029Z,95.50
2023-03-12T05:08:03.756Z,95.96
2023-03-12T05:10:30.420Z,96.18
2023-03-12T05:12:57.041Z,96.16
2023-03-12T05:15:23.640Z,96.66
2023-03-12T05:17:50.437Z,96.49
2023-03-12T05:20:17.804Z,96.69
2023-03-12T05:22:44.558Z,96.63
2023-03-12T05:25:11.556Z,96.67
2023-03-12T05:27:38.299Z,96.98
2023-03-12T05:30:06.774Z,96.81
2023-03-12T05:32:33.470Z,96.89
2023-03-12T05:35:00.139Z,97.00
2023-03-12T05:37:26.684Z,96.77
2023-03-12T05:39:54.520Z,96.96
2023-03-12T05:42:21.049Z,96.93
2023-03-12T05:44:47.546Z,96.70
2023-03-12T05:47:14.063Z,96.75
2023-03-12T05:49:40.809Z,96.64
2023-03-12T05:52:07.348Z,96.51
2023-03-12T05:54:33.878Z,96.80
2023-03-12T05:57:00.610Z,96.56
2023-03-12T05:59:27.390Z,96.48
2023-03-12T06:01:53.993Z,96.49
2023-03-12T06:04:20.533Z,96.21
2023-03-12T06:06:47.185Z,96.27
2023-03-12T06:09:13.803Z,96.28
2023-03-12T06:11:40.307Z,96.48
2023-03-12T06:14:06.839Z,96.62
2023-03-12T06:16:33.590Z,96.98
2023-03-12T06:19:02.599Z,97.24
2023-03-12T06:21:32.186Z,97.02
2023-03-12T06:23:59.639Z,97.09
2023-03-12T06:26:27.411Z,97.45
2023-03-12T06:28:54.304Z,97.40
2023-03-12T06:31:21.820Z,97.76
2023-03-12T06:33:48.460Z,97.92
2023-03-12T06:36:15.139Z,98.38
2023-03-12T06:38:41.782Z,98.49
2023-03-12T06:41:11.225Z,98.99
2023-03-12T06:43:39.255Z,99.44
2023-03-12T06:46:08.602Z,99.72
2023-03-12T06:48:36.882Z,99.99
2023-03-12T06:51:10.755Z,100.00
2023-03-12T06:53:40.395Z,100.00
2023-03-12T06:56:08.834Z,100.00
2023-03-12T06:58:35.362Z,100.00
2023-03-12T07:01:01.884Z,100.00
2023-03-12T07:03:28.397Z,100.00
2023-03-12T07:05:56.708Z,100.00
2023-03-12T07:08:23.624Z,100.00
2023-03-12T07:10:50.227Z,100.00
2023-03-12T07:13:16.902Z,100.00
2023-03-12T07:15:45.113Z,100.00
2023-03-12T07:18:12.273Z,100.00
2023-03-12T07:20:41.254Z,100.00
2023-03-12T07:23:08.649Z,100.00
2023-03-12T07:25:37.603Z,100.00
2023-03-12T07:28:04.452Z,100.00
2023-03-12T07:30:34.396Z,100.00
2023-03-12T07:33:05.871Z,100.00
2023-03-12T07:35:32.964Z,100.00
2023-03-12T07:38:01.051Z,100.00
2023-03-12T07:40:28.531Z,100.00
2023-03-12T07:42:55.250Z,100.00
2023-03-12T07:45:21.812Z,100.00
2023-03-12T07:47:48.443Z,100.00
2023-03-12T07:50:16.271Z,100.00
2023-03-12T07:52:43.129Z,100.00
2023-03-12T07:55:11.010Z,100.00
2023-03-12T07:57:38.347Z,100.00
2023-03-12T08:00:07.706Z,100.00
2023-03-12T08:02:34.548Z,100.00
2023-03-12T08:05:01.218Z,100.00
2023-03-12T08:07:32.333Z,100.00
2023-03-12T08:10:00.009Z,100.00
2023-03-12T08:12:27.149Z,100.00
2023-03-12T08:14:53.892Z,100.00
2023-03-12T08:17:20.643Z,100.00
2023-03-12T08:19:47.252Z,100.00
2023-03-12T08:22:13.745Z,100.00
2023-03-12T08:24:40.311Z,100.00
2023-03-12T08:27:06.833Z,100.00
2023-03-12T08:29:33.565Z,100.00
2023-03-12T08:32:04.943Z,100.00
2023-03-12T08:34:33.858Z,100.00
2023-03-12T08:37:00.766Z,100.00
2023-03-12T08:39:27.244Z,100.00
2023-03-12T08:41:55.543Z,100.00
2023-03-12T08:44:23.342Z,100.00
2023-03-12T08:46:50.233Z,100.00
2023-03-12T08:49:16.711Z,100.00
2023-03-12T08:51:43.236Z,100.00
2023-03-12T08:54:09.811Z,100.00
2023-03-12T08:56:42.379Z,100.00
2023-03-12T08:59:12.561Z,100.00
2023-03-12T09:01:43.041Z,100.00
2023-03-12T09:04:10.405Z,100.00
2023-03-12T09:06:38.627Z,100.00
2023-03-12T09:09:05.414Z,100.00
2023-03-12T09:11:33.840Z,100.00
2023-03-12T09:16:47.859Z,100.00
2023-03-12T09:19:14.378Z,100.00
2023-03-12T09:21:40.995Z,100.00
2023-03-12T09:24:08.261Z,100.00
2023-03-12T09:26:34.888Z,100.00
2023-03-12T09:29:01.562Z,100.00
2023-03-12T09:31:28.782Z,100.00
2023-03-12T09:33:55.304Z,100.00
2023-03-12T09:36:21.990Z,100.00
2023-03-12T09:38:48.508Z,100.00
2023-03-12T09:41:19.657Z,100.00
2023-03-12T09:43:52.934Z,100.00
2023-03-12T09:46:29.216Z,100.00
2023-03-12T09:49:01.670Z,100.00
2023-03-12T09:51:51.607Z,100.00
2023-03-12T09:54:23.931Z,100.00
2023-03-12T09:56:55.017Z,100.00
2023-03-12T09:59:22.382Z,100.00
2023-03-12T10:02:02.069Z,100.00
2023-03-12T10:04:58.135Z,100.00
2023-03-12T10:07:34.792Z,100.00
2023-03-12T10:10:55.824Z,100.00
2023-03-12T10:13:33.549Z,100.00
2023-03-12T10:16:08.591Z,100.00
2023-03-12T10:18:55.877Z,100.00
2023-03-12T10:21:32.010Z,100.00
2023-03-12T10:24:29.182Z,100.00
2023-03-12T10:26:58.309Z,100.00
2023-03-12T10:29:35.061Z,100.00
2023-03-12T10:32:07.455Z,100.00
2023-03-12T10:34:45.839Z,100.00
2023-03-12T10:37:22.612Z,100.00
2023-03-12T10:39:50.060Z,100.00
2023-03-12T10:42:29.222Z,100.00
2023-03-12T10:44:59.944Z,100.00
2023-03-12T10:47:38.240Z,100.00
2023-03-12T10:50:18.106Z,100.00
2023-03-12T10:52:46.362Z,100.00
2023-03-12T10:55:12.799Z,100.00
2023-03-12T10:57:42.873Z,100.00
2023-03-12T11:00:13.648Z,100.00
2023-03-12T11:02:43.538Z,100.00
2023-03-12T11:05:25.900Z,100.00
2023-03-12T11:07:52.940Z,100.00
2023-03-12T11:10:25.219Z,100.00
2023-03-12T11:12:58.577Z,100.00
2023-03-12T11:15:40.821Z,100.00
2023-03-12T11:18:25.104Z,100.00
2023-03-12T11:21:12.695Z,100.00
2023-03-12T11:24:15.259Z,100.00
2023-03-12T11:27:03.298Z,100.00
2023-03-12T11:29:33.358Z,100.00
2023-03-12T11:32:17.156Z,100.00
2023-03-12T11:34:49.559Z,100.00
2023-03-12T11:37:53.589Z,100.00
2023-03-12T11:40:54.230Z,100.00
2023-03-12T11:43:42.819Z,100.00
2023-03-12T11:46:44.771Z,100.00
2023-03-12T11:49:26.369Z,100.00
2023-03-12T11:52:02.036Z,100.00
2023-03-12T11:54:47.897Z,100.00
2023-03-12T11:57:57.105Z,100.00
2023-03-12T12:00:39.091Z,100.00
2023-03-12T12:03:42.871Z,100.00
2023-03-12T12:06:12.287Z,100.00
2023-03-12T12:08:48.081Z,100.00
2023-03-12T12:11:32.497Z,100.00
2023-03-12T12:14:44.064Z,100.00
2023-03-12T12:17:29.764Z,100.00
2023-03-12T12:20:22.257Z,100.00
2023-03-12T12:22:58.797Z,100.00
2023-03-12T12:25:55.806Z,100.00
2023-03-12T12:28:59.912Z,100.00
2023-03-12T12:31:56.969Z,100.00
2023-03-12T12:34:36.325Z,100.00
2023-03-12T12:37:18.871Z,100.00
2023-03-12T12:40:18.064Z,100.00
2023-03-12T12:43:04.455Z,100.00
2023-03-12T12:45:31.228Z,100.00
2023-03-12T12:48:03.850Z,100.00
2023-03-12T12:50:36.834Z,100.00
2023-03-12T12:53:23.160Z,100.00
2023-03-12T12:56:01.126Z,100.00
2023-03-12T12:58:59.021Z,100.00
2023-03-12T13:01:27.852Z,100.00
2023-03-12T13:04:01.786Z,100.00
2023-03-12T13:06:30.211Z,99.54
2023-03-12T13:08:56.716Z,99.74
2023-03-12T13:11:27.350Z,100.00
2023-03-12T13:14:03.622Z,99.12
2023-03-12T13:16:46.514Z,98.46
2023-03-12T13:19:16.079Z,98.34
2023-03-12T13:22:10.551Z,98.33
2023-03-12T13:24:44.995Z,98.08
2023-03-12T13:27:36.519Z,98.61
2023-03-12T13:30:27.914Z,97.78
2023-03-12T13:32:57.554Z,98.13
2023-03-12T13:35:24.321Z,97.24
2023-03-12T13:37:53.492Z,96.75
2023-03-12T13:40:29.233Z,96.76
2023-03-12T13:43:02.773Z,97.14
2023-03-12T13:45:31.902Z,95.41
2023-03-12T13:48:02.094Z,95.04
2023-03-12T13:50:30.330Z,93.84
2023-03-12T13:53:25.918Z,93.19
2023-03-12T13:56:10.734Z,92.41
2023-03-12T13:58:57.352Z,92.12
2023-03-12T14:01:29.437Z,90.26
2023-03-12T14:04:00.431Z,88.49
2023-03-12T14:06:30.313Z,89.99
2023-03-12T14:09:39.268Z,88.45
2023-03-12T14:12:19.345Z,86.12
2023-03-12T14:14:51.815Z,85.37
2023-03-12T14:17:24.456Z,84.52
2023-03-12T14:20:23.220Z,85.26
2023-03-12T14:22:59.001Z,84.65
2023-03-12T14:25:37.788Z,84.20
2023-03-12T14:28:12.544Z,83.73
2023-03-12T14:30:57.673Z,84.13
2023-03-12T14:33:27.268Z,83.61
2023-03-12T14:36:01.668Z,83.30
2023-03-12T14:38:34.540Z,83.81
2023-03-12T14:41:13.621Z,83.13
2023-03-12T14:43:42.534Z,81.86
2023-03-12T14:46:21.553Z,81.22
2023-03-12T14:48:50.637Z,80.84
2023-03-12T14:51:24.406Z,81.17
2023-03-12T14:53:51.838Z,80.50
2023-03-12T14:56:35.153Z,80.99
2023-03-12T14:59:21.481Z,80.23
2023-03-12T15:01:48.357Z,79.74
2023-03-12T15:04:18.342Z,80.66
2023-03-12T15:06:51.260Z,80.99
2023-03-12T15:09:28.208Z,80.08
2023-03-12T15:11:58.421Z,79.78
2023-03-12T15:14:28.222Z,80.46
2023-03-12T15:16:56.022Z,81.15
2023-03-12T15:19:31.394Z,79.98
2023-03-12T15:21:58.278Z,79.33
2023-03-12T15:24:25.303Z,79.81
2023-03-12T15:26:51.873Z,79.74
2023-03-12T15:29:29.285Z,79.93
2023-03-12T15:31:58.864Z,80.23
2023-03-12T15:34:39.254Z,80.39
2023-03-12T15:37:40.947Z,80.81
2023-03-12T15:40:22.043Z,81.75
2023-03-12T15:42:49.775Z,80.10
2023-03-12T15:45:32.075Z,80.45
2023-03-12T15:47:58.709Z,81.06
2023-03-12T15:50:36.753Z,80.64
2023-03-12T15:53:06.679Z,80.69
2023-03-12T15:55:35.658Z,80.92
2023-03-12T15:58:02.991Z,80.97
2023-03-12T16:00:44.637Z,81.43
2023-03-12T16:03:17.308Z,81.76
2023-03-12T16:05:44.612Z,81.69
2023-03-12T16:08:11.520Z,81.58
2023-03-12T16:10:38.978Z,82.69
2023-03-12T16:13:05.793Z,82.28
2023-03-12T16:15:36.122Z,82.36
2023-03-12T16:18:03.009Z,82.71
2023-03-12T16:20:30.198Z,82.99
2023-03-12T16:22:56.887Z,83.12
2023-03-12T16:25:23.843Z,84.12
2023-03-12T16:27:54.799Z,83.78
2023-03-12T16:30:31.322Z,83.77
2023-03-12T16:33:00.268Z,84.83
2023-03-12T16:35:28.311Z,85.07
2023-03-12T16:37:55.757Z,85.09
2023-03-12T16:40:32.953Z,84.87
2023-03-12T16:43:03.367Z,85.60
2023-03-12T16:45:33.397Z,85.81
2023-03-12T16:48:03.510Z,85.73
2023-03-12T16:50:30.716Z,85.92
2023-03-12T16:52:58.006Z,86.81
2023-03-12T16:55:44.207Z,86.78
2023-03-12T16:58:13.271Z,87.73
2023-03-12T17:00:40.556Z,87.04
2023-03-12T17:03:07.088Z,87.63
2023-03-12T17:05:33.628Z,87.92
2023-03-12T17:08:00.165Z,87.78
2023-03-12T17:10:26.789Z,88.25
2023-03-12T17:12:53.833Z,89.03
2023-03-12T17:15:33.361Z,88.89
2023-03-12T17:18:03.657Z,88.50
2023-03-12T17:20:36.071Z,88.80
2023-03-12T17:23:03.928Z,88.79
2023-03-12T17:25:33.001Z,89.53
2023-03-12T17:28:00.110Z,89.55
2023-03-12T17:30:29.170Z,89.88
2023-03-12T17:33:04.729Z,89.56
2023-03-12T17:35:31.896Z,89.33
2023-03-12T17:37:58.827Z,89.94
2023-03-12T17:40:25.493Z,89.74
2023-03-12T17:42:52.293Z,90.07
2023-03-12T17:45:18.794Z,90.32
2023-03-12T17:47:45.458Z,90.42
2023-03-12T17:50:12.476Z,90.57
2023-03-12T17:52:38.999Z,90.59
2023-03-12T17:55:06.533Z,90.37
2023-03-12T17:57:33.415Z,90.37
2023-03-12T17:59:59.905Z,90.46
2023-03-12T18:02:26.472Z,90.93
2023-03-12T18:04:53.062Z,91.12
2023-03-12T18:07:19.550Z,90.93
2023-03-12T18:09:46.088Z,90.45
2023-03-12T18:12:12.758Z,91.44
2023-03-12T18:14:39.443Z,91.20
2023-03-12T18:17:06.258Z,90.87
2023-03-12T18:19:35.182Z,91.64
2023-03-12T18:22:01.987Z,90.87
2023-03-12T18:24:28.601Z,91.65
2023-03-12T18:26:55.166Z,91.89
2023-03-12T18:29:21.639Z,91.80
2023-03-12T18:31:48.116Z,92.27
2023-03-12T18:34:14.591Z,91.32
2023-03-12T18:36:41.092Z,91.62
2023-03-12T18:39:07.760Z,91.83
2023-03-12T18:41:34.204Z,91.74
2023-03-12T18:44:00.713Z,91.49
2023-03-12T18:46:28.095Z,91.39
2023-03-12T18:48:54.808Z,90.94
2023-03-12T18:51:21.354Z,91.47
2023-03-12T18:53:47.794Z,91.26
2023-03-12T18:56:14.879Z,91.58
2023-03-12T18:58:41.468Z,91.21
2023-03-12T19:01:08.036Z,91.47
2023-03-12T19:03:36.634Z,90.87
2023-03-12T19:06:08.554Z,91.16
2023-03-12T19:08:37.289Z,91.44
2023-03-12T19:11:09.610Z,91.59
2023-03-12T19:13:36.418Z,91.86
2023-03-12T19:16:06.051Z,91.89
2023-03-12T19:18:32.516Z,92.53
2023-03-12T19:20:59.093Z,92.16
2023-03-12T19:23:25.633Z,92.64
2023-03-12T19:25:52.221Z,92.18
2023-03-12T19:28:18.869Z,92.54
2023-03-12T19:30:45.384Z,92.83
2023-03-12T19:33:12.111Z,92.59
2023-03-12T19:35:39.850Z,92.67
2023-03-12T19:38:06.380Z,92.29
2023-03-12T19:40:34.150Z,92.45
2023-03-12T19:43:02.205Z,92.31
2023-03-12T19:45:29.096Z,92.28
2023-03-12T19:47:55.765Z,92.49
2023-03-12T19:50:23.077Z,92.28
2023-03-12T19:52:49.763Z,92.30
2023-03-12T19:55:16.454Z,92.71
2023-03-12T19:57:43.097Z,92.51
2023-03-12T20:00:12.192Z,92.56
2023-03-12T20:02:39.418Z,93.26
2023-03-12T20:05:07.336Z,93.14
2023-03-12T20:07:34.016Z,93.13
2023-03-12T20:10:00.606Z,94.01
2023-03-12T20:12:27.437Z,93.83
2023-03-12T20:14:53.937Z,94.42
2023-03-12T20:17:20.416Z,94.32
2023-03-12T20:19:46.888Z,94.05
2023-03-12T20:22:13.507Z,94.78
2023-03-12T20:24:40.245Z,94.64
2023-03-12T20:27:06.780Z,94.30
2023-03-12T20:29:33.389Z,94.78
2023-03-12T20:31:59.954Z,95.05
2023-03-12T20:34:26.519Z,95.34
2023-03-12T20:36:53.052Z,95.64
2023-03-12T20:39:19.817Z,95.28
2023-03-12T20:41:46.312Z,95.17
2023-03-12T20:44:12.944Z,94.98
2023-03-12T20:46:39.442Z,95.57
2023-03-12T20:49:05.980Z,95.70
2023-03-12T20:51:32.477Z,95.28
2023-03-12T20:53:59.029Z,95.25
2023-03-12T20:56:25.583Z,95.10
2023-03-12T20:58:52.339Z,95.54
2023-03-12T21:01:18.882Z,95.53
2023-03-12T21:03:45.758Z,95.49
2023-03-12T21:06:12.319Z,95.47
2023-03-12T21:08:38.854Z,95.71
2023-03-12T21:11:06.767Z,95.53
2023-03-12T21:13:33.286Z,95.45
2023-03-12T21:15:59.828Z,95.48
2023-03-12T21:18:26.402Z,95.89
2023-03-12T21:20:53.135Z,95.88
2023-03-12T21:23:19.905Z,95.61
2023-03-12T21:25:46.496Z,95.73
2023-03-12T21:28:13.060Z,95.36
2023-03-12T21:30:39.618Z,95.65
2023-03-12T21:33:07.275Z,95.71
2023-03-12T21:35:33.764Z,95.46
2023-03-12T21:38:00.369Z,95.73
2023-03-12T21:40:27.007Z,96.17
2023-03-12T21:42:53.538Z,95.30
2023-03-12T21:45:19.966Z,95.48
2023-03-12T21:47:46.395Z,95.55
2023-03-12T21:50:13.013Z,95.54
2023-03-12T21:52:42.913Z,95.72
2023-03-12T21:55:10.123Z,95.87
2023-03-12T21:57:36.632Z,96.39
2023-03-12T22:00:04.333Z,95.83
2023-03-12T22:02:31.706Z,96.37
2023-03-12T22:05:01.362Z,96.30
2023-03-12T22:07:30.983Z,96.20
2023-03-12T22:09:57.668Z,96.45
2023-03-12T22:12:24.334Z,96.63
2023-03-12T22:14:51.056Z,96.69
2023-03-12T22:17:17.783Z,96.92
2023-03-12T22:19:44.477Z,96.84
2023-03-12T22:22:11.207Z,96.43
2023-03-12T22:24:38.025Z,96.66
2023-03-12T22:27:07.355Z,96.87
2023-03-12T22:29:34.510Z,96.75
2023-03-12T22:32:01.170Z,97.10
2023-03-12T22:34:29.421Z,96.73
2023-03-12T22:36:55.987Z,97.35
2023-03-12T22:39:22.462Z,97.31
2023-03-12T22:41:52.968Z,97.82
2023-03-12T22:44:19.638Z,97.48
2023-03-12T22:46:46.350Z,97.91
2023-03-12T22:49:12.956Z,97.99
2023-03-12T22:51:39.458Z,98.28
2023-03-12T22:54:06.022Z,98.77
2023-03-12T22:56:32.535Z,99.10
2023-03-12T22:58:59.505Z,99.22
2023-03-12T23:01:26.646Z,99.55
2023-03-12T23:03:53.176Z,99.84
2023-03-12T23:06:22.842Z,100.00
2023-03-12T23:08:49.628Z,100.00
2023-03-12T23:11:17.347Z,100.00
2023-03-12T23:13:45.257Z,100.00
2023-03-12T23:16:17.526Z,100.00
2023-03-12T23:18:44.881Z,100.00
2023-03-12T23:21:17.809Z,100.00
2023-03-12T23:23:45.087Z,100.00
2023-03-12T23:26:15.533Z,100.00
2023-03-12T23:28:42.088Z,100.00
2023-03-12T23:31:10.570Z,100.00
2023-03-12T23:33:37.841Z,100.00
2023-03-12T23:36:10.948Z,100.00
2023-03-12T23:38:38.265Z,100.00
2023-03-12T23:41:07.778Z,100.00
2023-03-12T23:43:34.574Z,100.00
2023-03-12T23:46:03.190Z,100.00
2023-03-12T23:48:31.625Z,100.00
2023-03-12T23:51:09.296Z,100.00
2023-03-12T23:53:37.181Z,100.00
2023-03-12T23:56:05.963Z,100.00
2023-03-12T23:58:33.223Z,100.00
